createdAt,value
2023-02-14T00:01:11.420Z,97573.34
2023-02-14T00:03:38.975Z,97578.00
2023-02-14T00:06:08.292Z,97584.28
2023-02-14T00:08:36.525Z,97584.75
2023-02-14T00:11:04.480Z,97570.59
2023-02-14T00:13:31.902Z,97592.50
2023-02-14T00:15:58.437Z,97553.84
2023-02-14T00:18:47.434Z,97589.41
2023-02-14T00:21:14.903Z,97581.69
2023-02-14T00:23:42.346Z,97589.41
2023-02-14T00:26:14.525Z,97589.56
2023-02-14T00:28:41.962Z,97573.47
2023-02-14T00:31:09.616Z,97572.50
2023-02-14T00:33:38.526Z,97580.69
2023-02-14T00:36:07.607Z,97558.00
2023-02-14T00:38:35.649Z,97581.63
2023-02-14T00:41:04.865Z,97579.22
2023-02-14T00:43:32.559Z,97581.63
2023-02-14T00:46:00.058Z,97542.66
2023-02-14T00:48:27.716Z,97568.63
2023-02-14T00:50:56.733Z,97544.31
2023-02-14T00:53:24.346Z,97558.34
2023-02-14T00:55:51.762Z,97557.69
2023-02-14T00:58:19.233Z,97558.59
2023-02-14T01:00:46.731Z,97540.22
2023-02-14T01:03:14.226Z,97561.63
2023-02-14T01:05:41.942Z,97557.06
2023-02-14T01:08:10.808Z,97548.34
2023-02-14T01:10:38.807Z,97542.06
2023-02-14T01:13:06.770Z,97542.41
2023-02-14T01:15:34.907Z,97542.91
2023-02-14T01:18:02.330Z,97536.81
2023-02-14T01:20:29.774Z,97526.97
2023-02-14T01:22:57.314Z,97548.34
2023-02-14T01:25:26.334Z,97536.75
2023-02-14T01:27:53.976Z,97511.44
2023-02-14T01:30:22.276Z,97527.72
2023-02-14T01:32:49.800Z,97519.19
2023-02-14T01:35:17.466Z,97505.91
2023-02-14T01:37:44.902Z,97538.25
2023-02-14T01:40:14.197Z,97502.66
2023-02-14T01:42:43.017Z,97526.97
2023-02-14T01:45:19.464Z,97519.63
2023-02-14T01:47:50.929Z,97530.69
2023-02-14T01:50:22.638Z,97519.28
2023-02-14T01:52:53.766Z,97529.28
2023-02-14T01:55:24.582Z,97478.56
2023-02-14T01:57:57.148Z,97526.06
2023-02-14T02:00:42.674Z,97530.38
2023-02-14T02:03:11.777Z,97510.78
2023-02-14T02:05:45.322Z,97523.72
2023-02-14T02:08:13.220Z,97514.84
2023-02-14T02:10:40.685Z,97516.31
2023-02-14T02:13:16.684Z,97512.94
2023-02-14T02:15:54.746Z,97518.28
2023-02-14T02:18:32.740Z,97510.63
2023-02-14T02:21:31.922Z,97515.03
2023-02-14T02:24:29.544Z,97517.44
2023-02-14T02:27:19.919Z,97501.38
2023-02-14T02:30:10.290Z,97514.41
2023-02-14T02:33:11.419Z,97504.09
2023-02-14T02:36:09.809Z,97501.84
2023-02-14T02:38:55.402Z,97511.66
2023-02-14T02:41:33.592Z,97508.59
2023-02-14T02:44:08.771Z,97511.66
2023-02-14T02:46:49.995Z,97509.06
2023-02-14T02:49:59.314Z,97506.00
2023-02-14T02:52:55.712Z,97500.69
2023-02-14T02:55:29.173Z,97500.38
2023-02-14T02:57:56.841Z,97495.56
2023-02-14T03:00:25.826Z,97504.06
2023-02-14T03:03:15.832Z,97486.56
2023-02-14T03:05:44.253Z,97503.44
2023-02-14T03:08:13.045Z,97489.78
2023-02-14T03:10:40.820Z,97489.47
2023-02-14T03:13:39.734Z,97502.63
2023-02-14T03:16:26.464Z,97491.06
2023-02-14T03:19:11.238Z,97472.53
2023-02-14T03:21:51.063Z,97439.38
2023-02-14T03:24:28.478Z,97506.47
2023-02-14T03:27:04.695Z,97496.81
2023-02-14T03:29:44.710Z,97485.41
2023-02-14T03:32:17.652Z,97491.94
2023-02-14T03:34:53.841Z,97464.53
2023-02-14T03:37:27.348Z,97490.91
2023-02-14T03:40:06.342Z,97498.28
2023-02-14T03:42:37.640Z,97499.91
2023-02-14T03:45:10.155Z,97498.50
2023-02-14T03:47:41.858Z,97499.47
2023-02-14T03:50:15.509Z,97458.75
2023-02-14T03:52:45.551Z,97483.75
2023-02-14T03:55:18.137Z,97495.03
2023-02-14T03:57:53.712Z,97499.25
2023-02-14T04:00:21.635Z,97491.34
2023-02-14T04:02:54.014Z,97486.53
2023-02-14T04:05:25.839Z,97499.69
2023-02-14T04:07:55.311Z,97496.81
2023-02-14T04:10:25.246Z,97487.97
2023-02-14T04:12:52.755Z,97492.59
2023-02-14T04:15:20.319Z,97479.06
2023-02-14T04:18:05.266Z,97486.81
2023-02-14T04:20:32.808Z,97488.91
2023-02-14T04:23:02.312Z,97488.56
2023-02-14T04:25:32.320Z,97495.66
2023-02-14T04:27:59.772Z,97486.97
2023-02-14T04:30:27.324Z,97490.00
2023-02-14T04:32:54.850Z,97490.19
2023-02-14T04:35:22.281Z,97469.94
2023-02-14T04:37:49.785Z,97488.41
2023-02-14T04:40:17.735Z,97481.75
2023-02-14T04:42:47.061Z,97478.03
2023-02-14T04:45:15.070Z,97487.66
2023-02-14T04:47:42.559Z,97488.78
2023-02-14T04:50:10.773Z,97438.72
2023-02-14T04:52:38.338Z,97467.53
2023-02-14T04:55:06.604Z,97491.38
2023-02-14T04:57:34.166Z,97491.69
2023-02-14T05:00:02.993Z,97464.66
2023-02-14T05:02:30.515Z,97486.91
2023-02-14T05:04:57.996Z,97475.41
2023-02-14T05:07:25.461Z,97473.53
2023-02-14T05:09:52.976Z,97483.34
2023-02-14T05:12:20.601Z,97482.81
2023-02-14T05:14:48.145Z,97474.13
2023-02-14T05:17:17.033Z,97474.66
2023-02-14T05:19:44.520Z,97477.53
2023-02-14T05:22:12.075Z,97479.13
2023-02-14T05:24:40.033Z,97474.47
2023-02-14T05:27:07.719Z,97471.75
2023-02-14T05:29:35.215Z,97483.50
2023-02-14T05:32:02.690Z,97472.75
2023-02-14T05:34:31.569Z,97463.06
2023-02-14T05:36:59.073Z,97474.81
2023-02-14T05:39:26.542Z,97455.72
2023-02-14T05:41:53.988Z,97456.50
2023-02-14T05:44:21.657Z,97457.63
2023-02-14T05:46:49.171Z,97473.41
2023-02-14T05:49:16.599Z,97466.66
2023-02-14T05:51:45.415Z,97420.97
2023-02-14T05:54:12.986Z,97441.09
2023-02-14T05:56:40.536Z,97459.31
2023-02-14T05:59:08.028Z,97462.00
2023-02-14T06:01:35.462Z,97465.53
2023-02-14T06:04:03.156Z,97465.81
2023-02-14T06:06:30.721Z,97466.97
2023-02-14T06:08:59.545Z,97464.66
2023-02-14T06:11:27.002Z,97452.66
2023-02-14T06:13:54.455Z,97455.50
2023-02-14T06:16:21.972Z,97461.81
2023-02-14T06:18:49.608Z,97456.00
2023-02-14T06:21:17.082Z,97448.25
2023-02-14T06:23:44.521Z,97456.19
2023-02-14T06:26:13.387Z,97469.38
2023-02-14T06:28:40.833Z,97453.63
2023-02-14T06:31:08.379Z,97464.41
2023-02-14T06:33:35.988Z,97454.59
2023-02-14T06:36:03.404Z,97468.13
2023-02-14T06:38:30.826Z,97476.66
2023-02-14T06:41:04.316Z,97476.66
2023-02-14T06:43:33.466Z,97466.38
2023-02-14T06:46:00.974Z,97470.75
2023-02-14T06:48:28.536Z,97473.16
2023-02-14T06:50:55.964Z,97475.94
2023-02-14T06:53:23.369Z,97472.09
2023-02-14T06:55:50.851Z,97462.63
2023-02-14T06:58:18.306Z,97469.59
2023-02-14T07:00:47.153Z,97471.53
2023-02-14T07:03:14.976Z,97468.66
2023-02-14T07:05:42.458Z,97453.84
2023-02-14T07:08:10.248Z,97459.63
2023-02-14T07:10:37.991Z,97469.94
2023-02-14T07:13:05.868Z,97472.22
2023-02-14T07:15:33.655Z,97452.56
2023-02-14T07:18:02.436Z,97471.56
2023-02-14T07:20:29.972Z,97472.22
2023-02-14T07:22:57.412Z,97472.03
2023-02-14T07:25:24.834Z,97471.72
2023-02-14T07:27:52.330Z,97456.59
2023-02-14T07:30:19.955Z,97454.69
2023-02-14T07:32:47.436Z,97454.69
2023-02-14T07:35:16.202Z,97456.97
2023-02-14T07:37:43.610Z,97468.56
2023-02-14T07:40:14.846Z,97463.75
2023-02-14T07:42:42.992Z,97471.94
2023-02-14T07:45:21.121Z,97466.66
2023-02-14T07:47:50.916Z,97470.66
2023-02-14T07:50:20.678Z,97475.81
2023-02-14T07:52:48.365Z,97475.00
2023-02-14T07:55:16.270Z,97472.25
2023-02-14T07:57:43.751Z,97483.06
2023-02-14T08:00:11.937Z,97488.97
2023-02-14T08:02:39.357Z,97481.25
2023-02-14T08:05:07.570Z,97473.16
2023-02-14T08:07:36.595Z,97467.50
2023-02-14T08:10:04.264Z,97481.19
2023-02-14T08:12:49.572Z,97485.50
2023-02-14T08:15:34.738Z,97486.41
2023-02-14T08:18:02.218Z,97476.88
2023-02-14T08:20:29.812Z,97484.09
2023-02-14T08:22:58.756Z,97466.88
2023-02-14T08:25:26.243Z,97478.44
2023-02-14T08:27:55.121Z,97474.44
2023-02-14T08:30:23.067Z,97475.25
2023-02-14T08:32:50.612Z,97479.00
2023-02-14T08:35:18.307Z,97475.53
2023-02-14T08:37:45.772Z,97487.13
2023-02-14T08:40:14.884Z,97481.75
2023-02-14T08:42:42.702Z,97484.28
2023-02-14T08:45:10.856Z,97483.53
2023-02-14T08:47:40.163Z,97488.44
2023-02-14T08:50:09.959Z,97491.75
2023-02-14T08:52:37.489Z,97476.19
2023-02-14T08:55:05.173Z,97488.31
2023-02-14T08:57:34.060Z,97478.00
2023-02-14T09:00:01.536Z,97474.47
2023-02-14T09:02:29.109Z,97476.59
2023-02-14T09:04:56.545Z,97476.16
2023-02-14T09:07:23.981Z,97472.38
2023-02-14T09:09:51.448Z,97472.13
2023-02-14T09:12:18.893Z,97476.59
2023-02-14T09:14:47.727Z,97465.56
2023-02-14T09:17:16.160Z,97475.72
2023-02-14T09:19:43.944Z,97468.56
2023-02-14T09:22:12.771Z,97464.41
2023-02-14T09:24:41.390Z,97471.34
2023-02-14T09:27:10.536Z,97474.47
2023-02-14T09:29:38.249Z,97472.19
2023-02-14T09:32:07.533Z,97469.03
2023-02-14T09:34:36.266Z,97466.00
2023-02-14T09:37:21.523Z,97449.47
2023-02-14T09:39:49.176Z,97476.00
2023-02-14T09:42:37.808Z,97469.47
2023-02-14T09:45:12.040Z,97437.69
2023-02-14T09:47:47.461Z,97460.94
2023-02-14T09:50:20.890Z,97474.47
2023-02-14T09:52:53.246Z,97430.13
2023-02-14T09:55:27.754Z,97454.41
2023-02-14T09:58:10.154Z,97463.03
2023-02-14T10:00:43.498Z,97464.47
2023-02-14T10:03:49.972Z,97468.13
2023-02-14T10:06:31.394Z,97436.72
2023-02-14T10:09:08.254Z,97458.41
2023-02-14T10:11:46.635Z,97402.97
2023-02-14T10:14:18.188Z,97457.84
2023-02-14T10:16:49.841Z,97413.22
2023-02-14T10:19:25.200Z,97418.84
2023-02-14T10:22:02.802Z,97447.03
2023-02-14T10:24:36.103Z,97453.00
2023-02-14T10:27:13.330Z,97457.22
2023-02-14T10:29:42.806Z,97441.19
2023-02-14T10:32:15.463Z,97422.97
2023-02-14T10:34:50.067Z,97435.75
2023-02-14T10:37:32.800Z,97450.75
2023-02-14T10:40:21.832Z,97397.69
2023-02-14T10:42:59.964Z,97382.13
2023-02-14T10:45:35.344Z,97440.19
2023-02-14T10:48:09.997Z,97423.72
2023-02-14T10:50:47.726Z,97435.50
2023-02-14T10:53:20.812Z,97438.06
2023-02-14T10:55:53.888Z,97440.03
2023-02-14T10:58:23.593Z,97424.53
2023-02-14T11:00:59.209Z,97416.44
2023-02-14T11:03:28.386Z,97411.03
2023-02-14T11:05:57.374Z,97419.63
2023-02-14T11:08:28.230Z,97420.91
2023-02-14T11:11:01.019Z,97405.59
2023-02-14T11:13:35.218Z,97408.94
2023-02-14T11:16:05.354Z,97401.88
2023-02-14T11:18:35.680Z,97402.59
2023-02-14T11:21:08.175Z,97398.56
2023-02-14T11:23:38.690Z,97394.75
2023-02-14T11:26:11.625Z,97400.25
2023-02-14T11:28:49.685Z,97396.22
2023-02-14T11:31:26.434Z,97393.91
2023-02-14T11:33:54.294Z,97390.22
2023-02-14T11:36:24.713Z,97389.78
2023-02-14T11:38:58.947Z,97382.81
2023-02-14T11:41:26.372Z,97383.69
2023-02-14T11:44:12.820Z,97384.34
2023-02-14T11:46:52.748Z,97376.44
2023-02-14T11:49:30.083Z,97378.00
2023-02-14T11:52:02.864Z,97379.38
2023-02-14T11:54:36.549Z,97371.91
2023-02-14T11:57:09.565Z,97361.00
2023-02-14T11:59:44.136Z,97353.66
2023-02-14T12:02:26.595Z,97351.09
2023-02-14T12:04:58.337Z,97347.91
2023-02-14T12:07:31.789Z,97351.88
2023-02-14T12:10:18.346Z,97349.03
2023-02-14T12:12:54.304Z,97338.34
2023-02-14T12:15:36.546Z,97338.84
2023-02-14T12:18:30.744Z,97326.34
2023-02-14T12:21:05.089Z,97331.78
2023-02-14T12:23:41.920Z,97330.19
2023-02-14T12:26:18.620Z,97327.25
2023-02-14T12:28:52.105Z,97313.16
2023-02-14T12:31:20.472Z,97317.72
2023-02-14T12:33:50.219Z,97319.66
2023-02-14T12:36:31.596Z,97311.59
2023-02-14T12:39:09.839Z,97310.00
2023-02-14T12:41:45.988Z,97309.66
2023-02-14T12:44:22.187Z,97312.41
2023-02-14T12:47:04.383Z,97307.94
2023-02-14T12:49:49.317Z,97306.47
2023-02-14T12:52:39.117Z,97297.13
2023-02-14T12:55:28.367Z,97298.84
2023-02-14T12:58:03.418Z,97283.38
2023-02-14T13:00:38.536Z,97284.63
2023-02-14T13:03:31.802Z,97276.22
2023-02-14T13:06:04.929Z,97276.00
2023-02-14T13:08:49.297Z,97280.66
2023-02-14T13:11:34.324Z,97268.72
2023-02-14T13:14:15.767Z,97265.63
2023-02-14T13:16:50.420Z,97267.22
2023-02-14T13:19:33.844Z,97262.09
2023-02-14T13:22:03.069Z,97249.16
2023-02-14T13:24:36.372Z,97259.59
2023-02-14T13:27:07.996Z,97251.28
2023-02-14T13:29:44.181Z,97249.13
2023-02-14T13:32:15.030Z,97251.72
2023-02-14T13:34:45.043Z,97244.53
2023-02-14T13:37:15.199Z,97237.47
2023-02-14T13:39:46.621Z,97239.84
2023-02-14T13:42:51.889Z,97238.44
2023-02-14T13:46:04.980Z,97230.63
2023-02-14T13:48:33.033Z,97214.25
2023-02-14T13:51:02.823Z,97221.91
2023-02-14T13:53:33.934Z,97227.28
2023-02-14T13:56:02.061Z,97207.84
2023-02-14T13:58:31.240Z,97214.09
2023-02-14T14:00:59.027Z,97215.31
2023-02-14T14:03:55.153Z,97211.09
2023-02-14T14:06:22.642Z,97216.78
2023-02-14T14:08:56.984Z,97206.50
2023-02-14T14:11:59.465Z,97205.56
2023-02-14T14:14:36.234Z,97192.38
2023-02-14T14:17:19.425Z,97203.59
2023-02-14T14:19:47.534Z,97203.78
2023-02-14T14:22:16.609Z,97207.81
2023-02-14T14:24:57.033Z,97202.56
2023-02-14T14:27:27.087Z,97207.81
2023-02-14T14:29:58.369Z,97191.59
2023-02-14T14:32:30.457Z,97185.66
2023-02-14T14:34:59.703Z,97175.81
2023-02-14T14:37:29.575Z,97187.56
2023-02-14T14:39:58.811Z,97193.44
2023-02-14T14:42:31.810Z,97189.50
2023-02-14T14:45:03.284Z,97200.69
2023-02-14T14:47:38.041Z,97197.22
2023-02-14T14:50:10.528Z,97187.03
2023-02-14T14:52:40.640Z,97198.22
2023-02-14T14:55:10.154Z,97196.06
2023-02-14T14:57:39.552Z,97184.81
2023-02-14T15:00:20.364Z,97192.34
2023-02-14T15:03:06.440Z,97187.88
2023-02-14T15:05:36.730Z,97187.44
2023-02-14T15:08:20.822Z,97185.03
2023-02-14T15:10:52.374Z,97182.38
2023-02-14T15:13:48.710Z,97179.53
2023-02-14T15:16:22.937Z,97179.16
2023-02-14T15:18:52.078Z,97169.56
2023-02-14T15:21:19.792Z,97180.94
2023-02-14T15:23:47.692Z,97175.66
2023-02-14T15:26:19.814Z,97177.84
2023-02-14T15:28:55.666Z,97180.25
2023-02-14T15:31:29.017Z,97180.66
2023-02-14T15:33:57.576Z,97186.22
2023-02-14T15:36:25.410Z,97168.31
2023-02-14T15:38:54.344Z,97164.06
2023-02-14T15:41:24.219Z,97170.00
2023-02-14T15:43:53.996Z,97172.13
2023-02-14T15:46:32.150Z,97168.94
2023-02-14T15:49:01.702Z,97172.53
2023-02-14T15:51:32.585Z,97167.03
2023-02-14T15:54:02.768Z,97165.53
2023-02-14T15:56:32.432Z,97173.75
2023-02-14T15:59:02.230Z,97180.78
2023-02-14T16:01:33.587Z,97169.25
2023-02-14T16:04:03.582Z,97168.56
2023-02-14T16:06:37.187Z,97179.19
2023-02-14T16:09:06.953Z,97167.63
2023-02-14T16:11:36.995Z,97177.78
2023-02-14T16:14:40.885Z,97179.19
2023-02-14T16:17:13.519Z,97182.63
2023-02-14T16:19:42.948Z,97176.22
2023-02-14T16:22:11.847Z,97178.59
2023-02-14T16:24:40.279Z,97176.94
2023-02-14T16:27:07.788Z,97182.72
2023-02-14T16:29:36.653Z,97182.06
2023-02-14T16:32:16.954Z,97181.50
2023-02-14T16:34:46.983Z,97191.03
2023-02-14T16:37:22.220Z,97173.13
2023-02-14T16:39:50.767Z,97189.94
2023-02-14T16:42:19.069Z,97181.28
2023-02-14T16:44:47.371Z,97192.16
2023-02-14T16:47:18.385Z,97187.84
2023-02-14T16:49:46.922Z,97182.19
2023-02-14T16:52:17.210Z,97193.53
2023-02-14T16:54:44.908Z,97188.88
2023-02-14T16:57:18.180Z,97192.78
2023-02-14T16:59:45.659Z,97181.06
2023-02-14T17:02:13.736Z,97151.88
2023-02-14T17:04:42.568Z,97183.25
2023-02-14T17:07:10.280Z,97199.19
2023-02-14T17:09:41.465Z,97198.66
2023-02-14T17:12:15.985Z,97184.53
2023-02-14T17:14:46.568Z,97199.81
2023-02-14T17:17:14.477Z,97205.25
2023-02-14T17:19:43.880Z,97209.50
2023-02-14T17:22:13.647Z,97210.53
2023-02-14T17:24:41.431Z,97181.63
2023-02-14T17:27:09.698Z,97224.13
2023-02-14T17:29:37.145Z,97216.56
2023-02-14T17:32:04.866Z,97222.94
2023-02-14T17:34:32.553Z,97208.75
2023-02-14T17:37:02.737Z,97224.91
2023-02-14T17:39:30.165Z,97157.81
2023-02-14T17:41:57.674Z,97212.53
2023-02-14T17:44:25.108Z,97212.50
2023-02-14T17:46:54.472Z,97207.09
2023-02-14T17:49:21.897Z,97198.75
2023-02-14T17:51:49.319Z,97199.34
2023-02-14T17:54:18.566Z,97185.38
2023-02-14T17:56:46.011Z,97204.13
2023-02-14T17:59:13.413Z,97201.72
2023-02-14T18:01:40.884Z,97196.31
2023-02-14T18:04:08.392Z,97197.03
2023-02-14T18:06:36.186Z,97205.34
2023-02-14T18:09:06.023Z,97193.50
2023-02-14T18:11:34.960Z,97200.59
2023-02-14T18:14:04.364Z,97205.31
2023-02-14T18:16:31.879Z,97206.22
2023-02-14T18:19:02.823Z,97197.13
2023-02-14T18:21:34.406Z,97200.19
2023-02-14T18:24:01.961Z,97191.66
2023-02-14T18:26:29.698Z,97201.53
2023-02-14T18:28:58.496Z,97204.06
2023-02-14T18:31:26.181Z,97203.19
2023-02-14T18:33:54.829Z,97207.59
2023-02-14T18:36:24.045Z,97215.25
2023-02-14T18:38:51.853Z,97181.84
2023-02-14T18:41:20.671Z,97206.44
2023-02-14T18:43:51.144Z,97192.03
2023-02-14T18:46:26.289Z,97194.72
2023-02-14T18:48:59.944Z,97194.25
2023-02-14T18:51:29.818Z,97143.78
2023-02-14T18:53:59.435Z,97168.53
2023-02-14T18:56:28.981Z,97186.72
2023-02-14T18:59:02.423Z,97162.94
2023-02-14T19:01:36.691Z,97148.00
2023-02-14T19:04:08.010Z,97178.00
2023-02-14T19:06:38.618Z,97175.31
2023-02-14T19:09:10.000Z,97115.50
2023-02-14T19:11:39.793Z,97165.84
2023-02-14T19:14:10.069Z,97170.41
2023-02-14T19:16:43.770Z,97162.84
2023-02-14T19:19:12.255Z,97165.31
2023-02-14T19:21:39.899Z,97133.09
2023-02-14T19:24:09.460Z,97088.91
2023-02-14T19:26:40.484Z,97148.91
2023-02-14T19:29:10.525Z,97114.50
2023-02-14T19:31:42.061Z,97105.69
2023-02-14T19:34:16.786Z,97142.97
2023-02-14T19:36:44.663Z,97148.22
2023-02-14T19:39:13.538Z,97142.91
2023-02-14T19:41:41.705Z,97145.22
2023-02-14T19:44:10.377Z,97139.28
2023-02-14T19:46:39.572Z,97131.88
2023-02-14T19:49:07.568Z,97115.34
2023-02-14T19:51:36.963Z,97117.81
2023-02-14T19:54:07.202Z,97083.50
2023-02-14T19:56:37.512Z,97134.63
2023-02-14T19:59:08.906Z,97110.63
2023-02-14T20:01:41.320Z,97131.97
2023-02-14T20:04:13.692Z,97124.28
2023-02-14T20:06:42.016Z,97131.03
2023-02-14T20:09:10.195Z,97135.13
2023-02-14T20:11:41.439Z,97092.38
2023-02-14T20:14:09.942Z,97109.56
2023-02-14T20:16:41.838Z,97130.19
2023-02-14T20:19:12.830Z,97090.34
2023-02-14T20:21:42.216Z,97092.16
2023-02-14T20:24:10.854Z,97050.69
2023-02-14T20:26:41.527Z,97105.75
2023-02-14T20:29:11.152Z,97119.19
2023-02-14T20:31:43.221Z,97115.41
2023-02-14T20:34:11.608Z,97121.03
2023-02-14T20:36:39.854Z,97109.66
2023-02-14T20:39:10.540Z,97114.47
2023-02-14T20:41:38.181Z,97118.47
2023-02-14T20:44:08.204Z,97109.53
2023-02-14T20:46:38.288Z,97094.72
2023-02-14T20:49:12.264Z,97085.81
2023-02-14T20:51:40.614Z,97108.13
2023-02-14T20:54:08.293Z,97108.50
2023-02-14T20:56:35.984Z,97113.19
2023-02-14T20:59:03.682Z,97061.72
2023-02-14T21:01:31.493Z,97109.03
2023-02-14T21:03:59.116Z,97098.44
2023-02-14T21:06:33.726Z,97071.94
2023-02-14T21:09:02.315Z,97046.31
2023-02-14T21:11:30.295Z,97091.69
2023-02-14T21:13:59.945Z,97096.59
2023-02-14T21:16:29.606Z,97026.06
2023-02-14T21:18:59.856Z,97036.53
2023-02-14T21:21:35.265Z,97045.78
2023-02-14T21:24:04.598Z,97067.09
2023-02-14T21:26:32.441Z,97067.78
2023-02-14T21:29:00.235Z,97097.03
2023-02-14T21:31:28.148Z,97082.03
2023-02-14T21:33:57.845Z,97085.72
2023-02-14T21:36:26.621Z,97096.69
2023-02-14T21:38:58.371Z,97093.25
2023-02-14T21:41:27.815Z,97030.19
2023-02-14T21:43:56.315Z,97054.53
2023-02-14T21:46:27.452Z,97085.00
2023-02-14T21:49:13.198Z,97031.66
2023-02-14T21:51:43.056Z,97088.28
2023-02-14T21:54:12.716Z,97086.72
2023-02-14T21:56:43.870Z,97031.66
2023-02-14T21:59:12.084Z,97064.69
2023-02-14T22:01:42.151Z,97055.50
2023-02-14T22:04:12.484Z,97053.75
2023-02-14T22:06:41.931Z,97075.94
2023-02-14T22:09:11.040Z,97005.28
2023-02-14T22:11:42.536Z,97063.81
2023-02-14T22:14:10.230Z,97043.91
2023-02-14T22:16:40.713Z,97040.97
2023-02-14T22:19:09.988Z,97075.91
2023-02-14T22:21:37.829Z,97062.66
2023-02-14T22:24:06.044Z,97066.28
2023-02-14T22:26:35.471Z,97063.69
2023-02-14T22:29:04.551Z,97045.22
2023-02-14T22:31:36.814Z,97066.88
2023-02-14T22:34:04.570Z,97066.31
2023-02-14T22:36:32.130Z,97069.56
2023-02-14T22:38:59.706Z,97069.09
2023-02-14T22:41:27.533Z,97066.63
2023-02-14T22:43:55.829Z,97051.94
2023-02-14T22:46:27.115Z,97058.66
2023-02-14T22:48:55.608Z,97047.41
2023-02-14T22:51:25.497Z,97064.69
2023-02-14T22:53:55.494Z,97061.50
2023-02-14T22:56:24.834Z,97056.69
2023-02-14T22:58:55.048Z,97062.69
2023-02-14T23:01:24.640Z,97059.16
2023-02-14T23:03:54.803Z,97055.31
2023-02-14T23:06:22.981Z,97045.19
2023-02-14T23:08:50.983Z,97067.66
2023-02-14T23:11:20.173Z,97052.84
2023-02-14T23:14:04.977Z,97047.50
2023-02-14T23:16:51.525Z,97026.50
2023-02-14T23:19:38.614Z,97055.47
2023-02-14T23:22:08.112Z,97046.75
2023-02-14T23:24:35.868Z,97052.00
2023-02-14T23:27:03.880Z,97062.94
2023-02-14T23:29:31.660Z,97055.69
2023-02-14T23:32:00.612Z,97056.13
2023-02-14T23:34:28.590Z,97039.91
2023-02-14T23:36:56.027Z,97056.88
2023-02-14T23:39:24.118Z,97050.34
2023-02-14T23:41:51.682Z,97054.28
2023-02-14T23:44:20.962Z,97050.09
2023-02-14T23:46:49.530Z,97024.13
2023-02-14T23:49:19.084Z,97038.09
2023-02-14T23:51:48.497Z,97043.75
2023-02-14T23:54:16.048Z,97044.63
2023-02-14T23:56:45.164Z,97035.78
2023-02-14T23:59:14.827Z,97030.78
